createdAt,value
2022-12-11T00:01:14.454Z,32.33
2022-12-11T00:03:41.613Z,34.92
2022-12-11T00:06:10.456Z,30.15
2022-12-11T00:08:37.286Z,24.48
2022-12-11T00:11:04.273Z,31.98
2022-12-11T00:13:30.915Z,46.17
2022-12-11T00:16:00.881Z,53.63
2022-12-11T00:18:27.654Z,33.80
2022-12-11T00:20:54.346Z,46.88
2022-12-11T00:23:21.190Z,35.08
2022-12-11T00:25:48.308Z,18.30
2022-12-11T00:28:18.964Z,44.03
2022-12-11T00:30:45.819Z,28.92
2022-12-11T00:33:13.472Z,24.15
2022-12-11T00:35:41.863Z,24.55
2022-12-11T00:38:09.237Z,23.30
2022-12-11T00:40:37.300Z,23.55
2022-12-11T00:43:04.552Z,29.38
2022-12-11T00:45:31.309Z,25.17
2022-12-11T00:47:57.937Z,19.52
2022-12-11T00:50:24.665Z,21.20
2022-12-11T00:52:51.391Z,24.70
2022-12-11T00:55:18.434Z,31.95
2022-12-11T00:57:45.060Z,24.67
2022-12-11T01:00:13.003Z,25.88
2022-12-11T01:02:39.740Z,33.33
2022-12-11T01:05:06.842Z,27.27
2022-12-11T01:07:33.486Z,28.17
2022-12-11T01:10:18.878Z,36.03
2022-12-11T01:12:45.706Z,32.15
2022-12-11T01:15:12.610Z,29.75
2022-12-11T01:17:39.607Z,30.85
2022-12-11T01:20:06.770Z,29.70
2022-12-11T01:22:33.592Z,27.35
2022-12-11T01:25:00.243Z,30.00
2022-12-11T01:27:27.030Z,23.88
2022-12-11T01:29:53.720Z,25.60
2022-12-11T01:32:20.439Z,29.55
2022-12-11T01:34:47.280Z,35.10
2022-12-11T01:37:14.150Z,47.10
2022-12-11T01:39:40.910Z,32.33
2022-12-11T01:42:10.511Z,37.42
2022-12-11T01:44:37.513Z,33.70
2022-12-11T01:47:04.277Z,31.60
2022-12-11T01:49:31.099Z,31.05
2022-12-11T01:52:08.356Z,29.35
2022-12-11T01:54:35.423Z,38.05
2022-12-11T01:57:05.933Z,33.58
2022-12-11T01:59:35.029Z,27.25
2022-12-11T02:02:08.889Z,32.92
2022-12-11T02:04:38.216Z,28.58
2022-12-11T02:07:05.062Z,26.75
2022-12-11T02:09:34.215Z,50.35
2022-12-11T02:12:11.411Z,30.30
2022-12-11T02:15:00.009Z,31.52
2022-12-11T02:17:35.950Z,29.38
2022-12-11T02:20:16.552Z,25.52
2022-12-11T02:22:43.214Z,26.38
2022-12-11T02:25:35.946Z,28.23
2022-12-11T02:28:16.948Z,25.27
2022-12-11T02:30:47.965Z,23.05
2022-12-11T02:33:15.512Z,23.58
2022-12-11T02:35:43.800Z,22.90
2022-12-11T02:38:18.164Z,27.90
2022-12-11T02:40:45.999Z,22.75
2022-12-11T02:43:14.732Z,24.02
2022-12-11T02:45:42.178Z,29.17
2022-12-11T02:48:11.383Z,17.85
2022-12-11T02:50:41.909Z,42.97
2022-12-11T02:53:11.534Z,23.08
2022-12-11T02:55:38.978Z,51.35
2022-12-11T02:58:09.318Z,24.58
2022-12-11T03:00:36.412Z,16.80
2022-12-11T03:03:03.333Z,20.55
2022-12-11T03:05:30.325Z,34.53
2022-12-11T03:07:57.284Z,32.33
2022-12-11T03:10:24.027Z,31.45
2022-12-11T03:12:53.966Z,34.97
2022-12-11T03:15:22.511Z,38.25
2022-12-11T03:17:55.050Z,37.50
2022-12-11T03:20:44.819Z,39.15
2022-12-11T03:23:22.870Z,32.75
2022-12-11T03:25:56.696Z,36.63
2022-12-11T03:28:32.080Z,37.92
2022-12-11T03:33:34.490Z,34.97
2022-12-11T03:36:07.904Z,41.35
2022-12-11T03:38:49.207Z,33.67
2022-12-11T03:41:18.594Z,33.97
2022-12-11T03:43:46.528Z,53.17
2022-12-11T03:46:14.636Z,37.22
2022-12-11T03:48:42.762Z,48.97
2022-12-11T03:51:09.895Z,37.83
2022-12-11T03:53:37.707Z,53.42
2022-12-11T03:56:07.067Z,39.58
2022-12-11T03:58:33.885Z,36.63
2022-12-11T04:01:00.639Z,34.63
2022-12-11T04:03:27.477Z,44.28
2022-12-11T04:05:55.547Z,53.25
2022-12-11T04:08:25.084Z,36.20
2022-12-11T04:11:10.970Z,34.35
2022-12-11T04:13:38.801Z,35.88
2022-12-11T04:16:05.722Z,53.97
2022-12-11T04:18:50.943Z,37.60
2022-12-11T04:21:39.608Z,41.88
2022-12-11T04:24:16.836Z,36.13
2022-12-11T04:26:47.582Z,49.25
2022-12-11T04:29:15.146Z,36.50
2022-12-11T04:31:42.315Z,44.15
2022-12-11T04:34:09.658Z,35.15
2022-12-11T04:36:36.355Z,31.90
2022-12-11T04:39:04.160Z,34.35
2022-12-11T04:41:30.976Z,43.55
2022-12-11T04:43:57.642Z,64.47
2022-12-11T04:46:25.147Z,31.52
2022-12-11T04:48:57.305Z,33.40
2022-12-11T04:51:25.015Z,37.00
2022-12-11T04:53:51.632Z,40.53
2022-12-11T04:56:18.339Z,39.22
2022-12-11T04:58:45.606Z,34.72
2022-12-11T05:01:20.797Z,36.95
2022-12-11T05:03:47.654Z,44.40
2022-12-11T05:06:14.638Z,42.58
2022-12-11T05:08:42.383Z,45.70
2022-12-11T05:11:11.866Z,47.15
2022-12-11T05:13:39.346Z,34.38
2022-12-11T05:16:07.876Z,40.35
2022-12-11T05:18:34.965Z,46.38
2022-12-11T05:21:08.072Z,60.22
2022-12-11T05:23:35.398Z,35.65
2022-12-11T05:26:05.651Z,61.30
2022-12-11T05:28:35.028Z,55.40
2022-12-11T05:31:24.435Z,50.63
2022-12-11T05:33:52.359Z,68.25
2022-12-11T05:36:24.708Z,91.35
2022-12-11T05:38:52.085Z,93.90
2022-12-11T05:41:20.810Z,106.50
2022-12-11T05:43:48.735Z,103.10
2022-12-11T05:46:20.356Z,99.32
2022-12-11T05:48:48.562Z,94.60
2022-12-11T05:51:16.018Z,69.22
2022-12-11T05:53:43.736Z,73.53
2022-12-11T05:56:15.610Z,80.90
2022-12-11T05:58:43.084Z,104.70
2022-12-11T06:01:11.653Z,87.45
2022-12-11T06:03:38.786Z,68.47
2022-12-11T06:06:06.562Z,72.53
2022-12-11T06:08:33.792Z,72.40
2022-12-11T06:11:00.693Z,71.80
2022-12-11T06:13:27.443Z,79.95
2022-12-11T06:15:54.138Z,77.50
2022-12-11T06:18:21.016Z,73.30
2022-12-11T06:20:56.546Z,85.78
2022-12-11T06:23:23.589Z,57.83
2022-12-11T06:25:50.421Z,69.57
2022-12-11T06:28:17.675Z,96.82
2022-12-11T06:30:45.134Z,67.70
2022-12-11T06:33:12.071Z,57.05
2022-12-11T06:35:42.371Z,69.10
2022-12-11T06:38:10.757Z,69.15
2022-12-11T06:40:37.613Z,68.75
2022-12-11T06:43:04.477Z,65.10
2022-12-11T06:45:31.343Z,73.28
2022-12-11T06:47:58.702Z,68.80
2022-12-11T06:50:25.479Z,76.57
2022-12-11T06:52:52.366Z,81.63
2022-12-11T06:55:19.151Z,97.38
2022-12-11T06:57:45.794Z,74.53
2022-12-11T07:00:13.070Z,56.28
2022-12-11T07:02:39.775Z,68.10
2022-12-11T07:05:07.064Z,70.97
2022-12-11T07:07:34.780Z,89.60
2022-12-11T07:10:07.956Z,64.47
2022-12-11T07:12:35.583Z,66.68
2022-12-11T07:15:02.509Z,68.43
2022-12-11T07:17:29.860Z,73.53
2022-12-11T07:19:56.871Z,62.95
2022-12-11T07:22:23.723Z,73.05
2022-12-11T07:24:50.435Z,81.43
2022-12-11T07:27:17.176Z,80.57
2022-12-11T07:29:45.253Z,68.38
2022-12-11T07:32:12.037Z,69.70
2022-12-11T07:34:44.969Z,70.75
2022-12-11T07:37:13.962Z,59.33
2022-12-11T07:39:40.995Z,80.50
2022-12-11T07:42:07.633Z,65.75
2022-12-11T07:44:34.344Z,105.40
2022-12-11T07:47:01.037Z,71.75
2022-12-11T07:49:27.767Z,74.18
2022-12-11T07:51:54.398Z,100.75
2022-12-11T07:54:21.214Z,94.45
2022-12-11T07:56:53.156Z,87.60
2022-12-11T07:59:21.265Z,86.03
2022-12-11T08:01:48.176Z,61.03
2022-12-11T08:04:15.998Z,99.68
2022-12-11T08:06:43.753Z,119.43
2022-12-11T08:09:17.448Z,74.28
2022-12-11T08:11:49.453Z,76.95
2022-12-11T08:14:16.243Z,83.38
2022-12-11T08:16:44.266Z,75.93
2022-12-11T08:19:14.120Z,87.45
2022-12-11T08:21:45.229Z,81.78
2022-12-11T08:24:12.261Z,83.70
2022-12-11T08:26:39.743Z,75.30
2022-12-11T08:29:06.472Z,73.60
2022-12-11T08:31:33.715Z,85.15
2022-12-11T08:34:00.665Z,68.32
2022-12-11T08:36:27.558Z,93.90
2022-12-11T08:38:55.750Z,82.15
2022-12-11T08:41:28.311Z,66.50
2022-12-11T08:43:57.646Z,107.93
2022-12-11T08:46:26.489Z,88.07
2022-12-11T08:48:54.299Z,97.10
2022-12-11T08:51:23.157Z,102.78
2022-12-11T08:53:50.608Z,74.30
2022-12-11T08:56:20.264Z,88.72
2022-12-11T08:58:47.352Z,88.75
2022-12-11T09:01:16.632Z,85.00
2022-12-11T09:03:43.556Z,77.45
2022-12-11T09:06:12.448Z,72.05
2022-12-11T09:08:39.348Z,77.82
2022-12-11T09:11:16.626Z,73.30
2022-12-11T09:13:43.466Z,89.95
2022-12-11T09:16:16.314Z,75.25
2022-12-11T09:18:43.377Z,71.90
2022-12-11T09:21:13.826Z,79.93
2022-12-11T09:23:43.760Z,94.85
2022-12-11T09:26:16.045Z,88.25
2022-12-11T09:28:46.208Z,76.55
2022-12-11T09:31:40.132Z,75.57
2022-12-11T09:34:09.182Z,87.35
2022-12-11T09:36:36.151Z,99.30
2022-12-11T09:39:05.579Z,84.35
2022-12-11T09:41:40.981Z,59.38
2022-12-11T09:47:34.921Z,83.88
2022-12-11T09:50:10.864Z,89.07
2022-12-11T09:52:40.752Z,72.13
2022-12-11T09:55:20.176Z,73.55
2022-12-11T09:58:18.253Z,74.78
2022-12-11T10:00:51.297Z,92.78
2022-12-11T10:03:39.450Z,70.50
2022-12-11T10:06:18.350Z,70.53
2022-12-11T10:09:07.590Z,63.13
2022-12-11T10:11:48.253Z,95.45
2022-12-11T10:14:35.631Z,74.15
2022-12-11T10:17:13.484Z,42.47
2022-12-11T10:19:41.491Z,67.82
2022-12-11T10:22:18.164Z,81.50
2022-12-11T10:25:15.541Z,74.18
2022-12-11T10:27:43.776Z,83.10
2022-12-11T10:30:18.537Z,45.80
2022-12-11T10:32:45.128Z,69.97
2022-12-11T10:35:32.600Z,66.03
2022-12-11T10:38:15.663Z,100.72
2022-12-11T10:40:46.363Z,91.13
2022-12-11T10:43:13.197Z,54.50
2022-12-11T10:45:40.302Z,59.28
2022-12-11T10:48:10.958Z,100.75
2022-12-11T10:50:38.211Z,56.28
2022-12-11T10:53:21.329Z,80.63
2022-12-11T10:55:48.757Z,104.90
2022-12-11T10:58:21.125Z,76.72
2022-12-11T11:01:19.044Z,128.13
2022-12-11T11:03:57.242Z,122.63
2022-12-11T11:06:24.714Z,112.50
2022-12-11T11:08:53.703Z,85.30
2022-12-11T11:11:27.786Z,98.10
2022-12-11T11:14:17.711Z,150.88
2022-12-11T11:16:48.921Z,102.68
2022-12-11T11:19:23.086Z,115.30
2022-12-11T11:21:52.870Z,105.70
2022-12-11T11:24:29.441Z,85.88
2022-12-11T11:27:12.643Z,87.50
2022-12-11T11:29:41.259Z,84.60
2022-12-11T11:32:29.505Z,67.82
2022-12-11T11:35:06.474Z,98.95
2022-12-11T11:37:34.562Z,116.35
2022-12-11T11:40:18.473Z,44.38
2022-12-11T11:43:03.997Z,19.05
2022-12-11T11:45:40.874Z,73.57
2022-12-11T11:48:19.764Z,86.78
2022-12-11T11:50:50.632Z,61.30
2022-12-11T11:53:24.134Z,103.25
2022-12-11T11:56:18.795Z,68.32
2022-12-11T11:58:59.371Z,17.08
2022-12-11T12:01:26.423Z,87.00
2022-12-11T12:03:53.563Z,40.03
2022-12-11T12:06:50.710Z,58.03
2022-12-11T12:09:30.121Z,39.25
2022-12-11T12:12:10.303Z,56.15
2022-12-11T12:15:14.303Z,51.38
2022-12-11T12:17:55.364Z,91.78
2022-12-11T12:20:48.108Z,37.85
2022-12-11T12:23:36.453Z,43.17
2022-12-11T12:26:11.552Z,30.92
2022-12-11T12:29:12.443Z,59.05
2022-12-11T12:31:45.602Z,36.28
2022-12-11T12:34:30.616Z,51.78
2022-12-11T12:37:28.452Z,76.57
2022-12-11T12:40:31.411Z,41.10
2022-12-11T12:43:35.816Z,100.63
2022-12-11T12:46:11.985Z,58.88
2022-12-11T12:48:39.247Z,32.88
2022-12-11T12:51:06.666Z,34.25
2022-12-11T12:53:35.147Z,52.17
2022-12-11T12:56:03.287Z,57.15
2022-12-11T12:58:36.147Z,47.40
2022-12-11T13:01:19.418Z,71.13
2022-12-11T13:04:06.689Z,60.67
2022-12-11T13:06:36.349Z,35.97
2022-12-11T13:09:25.237Z,25.73
2022-12-11T13:11:58.088Z,27.85
2022-12-11T13:14:32.714Z,24.13
2022-12-11T13:17:21.898Z,26.90
2022-12-11T13:19:53.231Z,49.63
2022-12-11T13:22:24.920Z,20.48
2022-12-11T13:25:05.205Z,19.25
2022-12-11T13:27:35.125Z,15.90
2022-12-11T13:30:25.126Z,19.83
2022-12-11T13:33:07.145Z,37.30
2022-12-11T13:35:35.689Z,30.63
2022-12-11T13:38:24.257Z,19.52
2022-12-11T13:40:55.990Z,38.42
2022-12-11T13:43:30.876Z,18.70
2022-12-11T13:46:06.816Z,16.70
2022-12-11T13:48:50.282Z,25.80
2022-12-11T13:51:19.391Z,16.65
2022-12-11T13:53:46.699Z,17.95
2022-12-11T13:56:19.583Z,18.75
2022-12-11T13:58:47.330Z,43.40
2022-12-11T14:01:34.393Z,17.27
2022-12-11T14:04:05.469Z,17.00
2022-12-11T14:06:34.278Z,19.45
2022-12-11T14:09:02.248Z,14.70
2022-12-11T14:11:42.500Z,16.58
2022-12-11T14:14:19.708Z,14.68
2022-12-11T14:16:51.910Z,13.68
2022-12-11T14:19:20.720Z,13.05
2022-12-11T14:22:02.423Z,13.80
2022-12-11T14:24:30.324Z,13.50
2022-12-11T14:26:57.960Z,12.38
2022-12-11T14:29:30.719Z,11.75
2022-12-11T14:32:02.096Z,14.27
2022-12-11T14:34:34.383Z,11.05
2022-12-11T14:37:03.298Z,14.57
2022-12-11T14:39:36.676Z,13.27
2022-12-11T14:42:11.972Z,20.30
2022-12-11T14:47:16.016Z,10.10
2022-12-11T14:49:48.765Z,10.60
2022-12-11T14:52:33.918Z,10.88
2022-12-11T14:55:06.229Z,9.80
2022-12-11T14:57:33.934Z,9.85
2022-12-11T15:00:01.185Z,10.73
2022-12-11T15:02:33.643Z,9.95
2022-12-11T15:05:18.250Z,9.60
2022-12-11T15:08:03.166Z,10.02
2022-12-11T15:11:14.822Z,12.43
2022-12-11T15:13:52.894Z,10.45
2022-12-11T15:16:20.882Z,10.45
2022-12-11T15:18:58.978Z,10.18
2022-12-11T15:21:31.783Z,9.68
2022-12-11T15:24:01.166Z,10.43
2022-12-11T15:26:35.390Z,11.05
2022-12-11T15:29:05.176Z,12.60
2022-12-11T15:31:34.007Z,12.10
2022-12-11T15:34:01.408Z,13.00
2022-12-11T15:36:31.121Z,11.65
2022-12-11T15:38:58.263Z,13.18
2022-12-11T15:41:25.844Z,12.85
2022-12-11T15:43:58.563Z,12.25
2022-12-11T15:46:25.984Z,12.15
2022-12-11T15:48:54.981Z,11.30
2022-12-11T15:51:23.017Z,12.10
2022-12-11T15:53:49.956Z,12.10
2022-12-11T15:56:17.116Z,10.23
2022-12-11T15:58:45.123Z,10.60
2022-12-11T16:01:12.326Z,10.45
2022-12-11T16:03:39.083Z,8.40
2022-12-11T16:06:06.097Z,9.43
2022-12-11T16:08:33.034Z,8.48
2022-12-11T16:11:00.140Z,8.45
2022-12-11T16:13:27.097Z,8.95
2022-12-11T16:15:54.494Z,8.80
2022-12-11T16:18:23.764Z,8.45
2022-12-11T16:20:51.451Z,9.32
2022-12-11T16:23:18.824Z,8.52
2022-12-11T16:25:46.464Z,8.13
2022-12-11T16:28:14.885Z,7.47
2022-12-11T16:30:43.830Z,9.23
2022-12-11T16:33:13.085Z,10.48
2022-12-11T16:35:41.846Z,11.50
2022-12-11T16:38:10.226Z,11.50
2022-12-11T16:40:37.479Z,12.30
2022-12-11T16:43:05.054Z,12.25
2022-12-11T16:45:32.391Z,12.77
2022-12-11T16:47:59.092Z,12.63
2022-12-11T16:50:26.052Z,14.88
2022-12-11T16:52:53.444Z,18.27
2022-12-11T16:55:22.387Z,17.27
2022-12-11T16:57:49.228Z,17.05
2022-12-11T17:00:16.631Z,19.92
2022-12-11T17:02:43.489Z,24.25
2022-12-11T17:05:10.862Z,19.70
2022-12-11T17:07:37.782Z,21.42
2022-12-11T17:10:05.388Z,21.48
2022-12-11T17:12:32.222Z,22.63
2022-12-11T17:14:59.157Z,21.45
2022-12-11T17:30:01.548Z,21.17
2022-12-11T17:32:28.358Z,18.45
2022-12-11T17:34:54.936Z,17.83
2022-12-11T17:37:21.630Z,19.27
2022-12-11T17:39:48.430Z,15.52
2022-12-11T17:42:15.129Z,19.05
2022-12-11T17:44:42.086Z,18.50
2022-12-11T17:47:11.277Z,20.23
2022-12-11T17:49:39.591Z,18.85
2022-12-11T17:52:06.593Z,19.63
2022-12-11T17:54:33.382Z,21.85
2022-12-11T17:57:00.077Z,22.15
2022-12-11T17:59:26.689Z,25.42
2022-12-11T18:01:53.441Z,23.50
2022-12-11T18:04:20.059Z,25.13
2022-12-11T18:06:46.748Z,26.52
2022-12-11T18:09:13.451Z,27.25
2022-12-11T18:11:40.194Z,31.67
2022-12-11T18:14:07.416Z,21.60
2022-12-11T18:16:38.373Z,26.73
2022-12-11T18:19:06.012Z,26.15
2022-12-11T18:21:35.184Z,22.00
2022-12-11T18:24:02.306Z,22.40
2022-12-11T18:26:29.292Z,22.30
2022-12-11T18:28:56.071Z,23.73
2022-12-11T18:31:23.460Z,24.50
2022-12-11T18:33:50.715Z,23.10
2022-12-11T18:36:18.811Z,22.35
2022-12-11T18:38:45.678Z,22.58
2022-12-11T18:41:13.522Z,21.23
2022-12-11T18:43:40.976Z,25.40
2022-12-11T18:46:16.125Z,22.65
2022-12-11T18:51:15.391Z,21.17
2022-12-11T18:53:42.028Z,24.23
2022-12-11T18:56:11.757Z,13.60
2022-12-11T18:58:38.967Z,4.28
2022-12-11T19:01:11.279Z,4.43
2022-12-11T19:03:38.084Z,5.40
2022-12-11T19:06:12.983Z,5.68
2022-12-11T19:08:40.354Z,9.40
2022-12-11T19:11:08.124Z,7.15
2022-12-11T19:13:34.955Z,6.05
2022-12-11T19:16:01.951Z,8.52
2022-12-11T19:18:28.648Z,10.02
2022-12-11T19:21:06.469Z,7.93
2022-12-11T19:23:34.898Z,9.07
2022-12-11T19:26:01.705Z,9.73
2022-12-11T19:28:28.380Z,10.20
2022-12-11T19:30:55.070Z,10.48
2022-12-11T19:33:21.981Z,7.90
2022-12-11T19:35:48.731Z,11.43
2022-12-11T19:38:15.420Z,9.00
2022-12-11T19:40:43.859Z,9.85
2022-12-11T19:43:10.749Z,9.38
2022-12-11T19:45:37.433Z,8.30
2022-12-11T19:48:04.347Z,10.82
2022-12-11T19:50:30.982Z,9.90
2022-12-11T19:52:57.749Z,9.70
2022-12-11T19:55:24.415Z,7.93
2022-12-11T19:57:51.050Z,9.35
2022-12-11T20:00:18.972Z,6.90
2022-12-11T20:02:45.606Z,4.53
2022-12-11T20:05:13.275Z,6.45
2022-12-11T20:07:40.186Z,5.80
2022-12-11T20:10:07.463Z,5.38
2022-12-11T20:13:01.950Z,4.68
2022-12-11T20:15:34.850Z,6.72
2022-12-11T20:18:15.398Z,5.68
2022-12-11T20:20:47.425Z,5.63
2022-12-11T20:23:14.607Z,9.38
2022-12-11T20:25:41.466Z,7.28
2022-12-11T20:28:08.278Z,8.07
2022-12-11T20:30:41.450Z,5.68
2022-12-11T20:33:08.214Z,8.27
2022-12-11T20:35:35.008Z,6.80
2022-12-11T20:38:01.659Z,9.40
2022-12-11T20:40:28.985Z,7.82
2022-12-11T20:42:55.634Z,7.40
2022-12-11T20:45:22.322Z,9.52
2022-12-11T20:47:49.226Z,6.82
2022-12-11T20:50:16.116Z,6.55
2022-12-11T20:52:42.787Z,7.90
2022-12-11T20:55:10.077Z,7.53
2022-12-11T20:57:40.630Z,7.22
2022-12-11T21:00:12.295Z,5.93
2022-12-11T21:02:39.098Z,6.03
2022-12-11T21:05:09.018Z,7.03
2022-12-11T21:07:35.771Z,7.68
2022-12-11T21:10:02.356Z,7.88
2022-12-11T21:12:31.680Z,7.65
2022-12-11T21:14:58.583Z,7.45
2022-12-11T21:17:25.279Z,9.05
2022-12-11T21:19:52.031Z,9.65
2022-12-11T21:22:18.640Z,9.80
2022-12-11T21:24:45.431Z,7.28
2022-12-11T21:27:12.041Z,7.90
2022-12-11T21:29:38.795Z,7.18
2022-12-11T21:32:05.791Z,8.50
2022-12-11T21:34:32.445Z,7.97
2022-12-11T21:36:59.525Z,8.10
2022-12-11T21:39:28.705Z,8.50
2022-12-11T21:41:55.418Z,7.28
2022-12-11T21:47:08.873Z,8.90
2022-12-11T21:49:35.569Z,6.88
2022-12-11T21:52:02.715Z,9.35
2022-12-11T21:54:29.531Z,7.70
2022-12-11T21:56:56.259Z,7.10
2022-12-11T21:59:23.027Z,8.40
2022-12-11T22:01:49.724Z,8.25
2022-12-11T22:04:16.884Z,8.40
2022-12-11T22:06:47.070Z,8.23
2022-12-11T22:09:15.476Z,6.38
2022-12-11T22:11:43.082Z,5.32
2022-12-11T22:14:13.380Z,4.18
2022-12-11T22:16:40.232Z,3.75
2022-12-11T22:19:06.932Z,2.90
2022-12-11T22:21:33.556Z,3.22
2022-12-11T22:24:00.461Z,3.65
2022-12-11T22:26:28.020Z,3.80
2022-12-11T22:28:55.631Z,3.55
2022-12-11T22:31:24.189Z,3.53
2022-12-11T22:33:53.718Z,4.15
2022-12-11T22:36:21.368Z,4.53
2022-12-11T22:38:48.040Z,4.63
2022-12-11T22:41:30.099Z,5.03
2022-12-11T22:43:57.295Z,5.72
2022-12-11T22:46:26.846Z,4.97
2022-12-11T22:48:53.753Z,4.68
2022-12-11T22:51:20.981Z,5.60
2022-12-11T22:53:47.737Z,5.85
2022-12-11T22:56:14.690Z,5.30
2022-12-11T22:58:41.514Z,4.85
2022-12-11T23:01:10.916Z,5.70
2022-12-11T23:03:38.585Z,5.55
2022-12-11T23:06:08.940Z,6.53
2022-12-11T23:08:36.008Z,6.35
2022-12-11T23:11:03.850Z,4.72
2022-12-11T23:13:30.659Z,5.95
2022-12-11T23:15:57.232Z,6.32
2022-12-11T23:18:23.839Z,6.70
2022-12-11T23:20:50.720Z,5.72
2022-12-11T23:23:17.440Z,7.40
2022-12-11T23:25:44.321Z,7.47
2022-12-11T23:28:10.923Z,5.13
2022-12-11T23:30:37.590Z,5.90
2022-12-11T23:33:06.610Z,6.63
2022-12-11T23:35:33.643Z,6.10
2022-12-11T23:38:00.414Z,6.28
2022-12-11T23:40:27.152Z,6.07
2022-12-11T23:42:53.983Z,7.75
2022-12-11T23:45:21.226Z,5.75
2022-12-11T23:47:47.871Z,6.43
2022-12-11T23:50:14.556Z,6.97
2022-12-11T23:52:41.592Z,7.00
2022-12-11T23:55:08.533Z,7.55
2022-12-11T23:57:35.677Z,6.50
